createdAt,value
2023-05-10T00:00:33.725Z,5.22
2023-05-10T00:03:02.003Z,6.63
2023-05-10T00:05:31.564Z,6.50
2023-05-10T00:07:59.749Z,5.93
2023-05-10T00:10:27.783Z,7.00
2023-05-10T00:12:55.875Z,6.95
2023-05-10T00:15:23.962Z,6.45
2023-05-10T00:17:52.059Z,5.93
2023-05-10T00:20:20.135Z,6.00
2023-05-10T00:22:49.542Z,6.68
2023-05-10T00:25:17.748Z,7.28
2023-05-10T00:27:45.814Z,5.88
2023-05-10T00:30:14.121Z,7.95
2023-05-10T00:32:42.309Z,7.57
2023-05-10T00:35:10.852Z,6.45
2023-05-10T00:37:39.199Z,7.40
2023-05-10T00:40:09.621Z,8.20
2023-05-10T00:42:37.719Z,7.15
2023-05-10T00:45:06.975Z,7.35
2023-05-10T00:47:35.375Z,7.30
2023-05-10T00:50:04.288Z,6.80
2023-05-10T00:52:33.337Z,8.55
2023-05-10T00:55:02.270Z,6.90
2023-05-10T00:57:31.862Z,7.57
2023-05-10T01:00:00.300Z,7.05
2023-05-10T01:02:28.460Z,6.90
2023-05-10T01:04:58.547Z,6.50
2023-05-10T01:07:26.620Z,6.95
2023-05-10T01:09:54.864Z,7.78
2023-05-10T01:12:23.043Z,7.28
2023-05-10T01:14:52.633Z,6.82
2023-05-10T01:17:21.838Z,6.15
2023-05-10T01:19:50.170Z,4.93
2023-05-10T01:22:41.677Z,6.10
2023-05-10T01:25:31.418Z,5.90
2023-05-10T01:28:19.216Z,5.45
2023-05-10T01:31:09.099Z,5.90
2023-05-10T01:33:45.210Z,5.95
2023-05-10T01:36:20.350Z,5.20
2023-05-10T01:38:53.797Z,5.05
2023-05-10T01:41:30.245Z,6.32
2023-05-10T01:46:35.477Z,6.32
2023-05-10T01:49:09.981Z,7.25
2023-05-10T01:51:43.926Z,7.70
2023-05-10T01:54:15.171Z,8.05
2023-05-10T01:56:45.913Z,8.88
2023-05-10T01:59:17.488Z,6.60
2023-05-10T02:01:47.198Z,6.43
2023-05-10T02:04:19.675Z,6.40
2023-05-10T02:06:49.495Z,6.85
2023-05-10T02:09:20.488Z,5.57
2023-05-10T02:11:51.193Z,6.03
2023-05-10T02:14:20.697Z,5.80
2023-05-10T02:16:50.232Z,6.00
2023-05-10T02:19:22.318Z,5.10
2023-05-10T02:21:53.060Z,4.47
2023-05-10T02:24:22.153Z,4.10
2023-05-10T02:26:51.919Z,3.92
2023-05-10T02:29:21.487Z,4.82
2023-05-10T02:31:50.197Z,3.50
2023-05-10T02:34:20.103Z,4.05
2023-05-10T02:36:48.294Z,4.57
2023-05-10T02:39:17.789Z,4.40
2023-05-10T02:41:48.260Z,4.53
2023-05-10T02:44:19.923Z,3.88
2023-05-10T02:46:49.110Z,4.60
2023-05-10T02:49:19.439Z,4.35
2023-05-10T02:51:53.720Z,4.22
2023-05-10T02:54:26.556Z,4.10
2023-05-10T02:57:00.402Z,6.35
2023-05-10T02:59:29.004Z,6.03
2023-05-10T03:01:57.088Z,5.80
2023-05-10T03:04:26.607Z,7.15
2023-05-10T03:06:57.529Z,5.85
2023-05-10T03:09:25.848Z,5.75
2023-05-10T03:12:02.130Z,5.63
2023-05-10T03:14:45.582Z,6.20
2023-05-10T03:17:18.761Z,6.50
2023-05-10T03:19:56.030Z,6.07
2023-05-10T03:22:28.492Z,7.13
2023-05-10T03:24:58.928Z,8.30
2023-05-10T03:27:30.268Z,9.45
2023-05-10T03:29:59.375Z,9.93
2023-05-10T03:32:28.182Z,8.68
2023-05-10T03:34:57.831Z,12.18
2023-05-10T03:37:26.925Z,10.05
2023-05-10T03:39:55.335Z,8.85
2023-05-10T03:42:23.483Z,9.55
2023-05-10T03:44:51.569Z,8.35
2023-05-10T03:47:19.551Z,6.90
2023-05-10T03:49:47.971Z,5.25
2023-05-10T03:52:17.458Z,5.63
2023-05-10T03:54:45.583Z,4.50
2023-05-10T03:57:13.595Z,4.28
2023-05-10T03:59:41.598Z,4.75
2023-05-10T04:02:09.665Z,4.20
2023-05-10T04:04:38.335Z,4.35
2023-05-10T04:07:06.703Z,4.60
2023-05-10T04:09:36.275Z,3.67
2023-05-10T04:12:04.555Z,3.80
2023-05-10T04:14:32.596Z,2.90
2023-05-10T04:17:00.761Z,2.50
2023-05-10T04:19:32.285Z,1.80
2023-05-10T04:22:00.475Z,2.10
2023-05-10T04:24:28.497Z,1.42
2023-05-10T04:26:58.056Z,1.20
2023-05-10T04:29:44.974Z,1.52
2023-05-10T04:32:14.144Z,1.13
2023-05-10T04:34:42.151Z,1.00
2023-05-10T04:37:10.197Z,1.00
2023-05-10T04:39:39.669Z,1.20
2023-05-10T04:42:11.244Z,1.05
2023-05-10T04:44:39.433Z,1.20
2023-05-10T04:47:07.411Z,1.05
2023-05-10T04:49:35.536Z,1.20
2023-05-10T04:52:03.534Z,1.20
2023-05-10T04:54:31.733Z,1.50
2023-05-10T04:56:59.803Z,1.73
2023-05-10T04:59:29.669Z,1.63
2023-05-10T05:01:57.739Z,1.42
2023-05-10T05:04:26.071Z,1.38
2023-05-10T05:06:54.210Z,1.60
2023-05-10T05:09:22.214Z,1.95
2023-05-10T05:11:50.426Z,1.83
2023-05-10T05:14:18.488Z,1.67
2023-05-10T05:16:47.840Z,1.77
2023-05-10T05:19:16.460Z,1.75
2023-05-10T05:21:44.502Z,1.50
2023-05-10T05:24:13.672Z,1.75
2023-05-10T05:26:41.744Z,1.90
2023-05-10T05:29:09.775Z,1.55
2023-05-10T05:31:37.833Z,2.20
2023-05-10T05:34:07.276Z,2.05
2023-05-10T05:36:39.271Z,2.47
2023-05-10T05:39:07.286Z,2.20
2023-05-10T05:41:35.277Z,2.22
2023-05-10T05:44:03.391Z,2.17
2023-05-10T05:46:31.388Z,2.17
2023-05-10T05:48:59.383Z,1.90
2023-05-10T05:51:28.814Z,2.40
2023-05-10T05:53:57.284Z,2.30
2023-05-10T05:56:26.145Z,2.03
2023-05-10T05:58:54.197Z,2.00
2023-05-10T06:01:22.510Z,1.92
2023-05-10T06:03:53.156Z,1.90
2023-05-10T06:06:21.600Z,1.95
2023-05-10T06:08:51.046Z,2.00
2023-05-10T06:11:19.088Z,2.28
2023-05-10T06:13:48.117Z,1.63
2023-05-10T06:16:16.199Z,1.80
2023-05-10T06:18:44.228Z,1.75
2023-05-10T06:21:12.265Z,1.90
2023-05-10T06:23:40.303Z,2.00
2023-05-10T06:26:09.937Z,1.85
2023-05-10T06:28:39.354Z,1.98
2023-05-10T06:31:08.033Z,1.80
2023-05-10T06:33:36.250Z,1.90
2023-05-10T06:36:05.005Z,1.88
2023-05-10T06:38:33.027Z,1.73
2023-05-10T06:41:01.765Z,1.60
2023-05-10T06:43:31.235Z,1.80
2023-05-10T06:45:59.462Z,2.10
2023-05-10T06:48:27.641Z,2.10
2023-05-10T06:50:55.662Z,2.00
2023-05-10T06:53:23.845Z,2.05
2023-05-10T06:55:52.067Z,1.58
2023-05-10T06:58:20.099Z,2.40
2023-05-10T07:00:49.681Z,2.22
2023-05-10T07:03:18.097Z,2.13
2023-05-10T07:05:49.215Z,1.95
2023-05-10T07:08:17.273Z,2.10
2023-05-10T07:10:45.344Z,2.20
2023-05-10T07:13:13.500Z,2.15
2023-05-10T07:15:41.687Z,2.13
2023-05-10T07:18:11.133Z,2.25
2023-05-10T07:20:39.179Z,2.75
2023-05-10T07:23:07.163Z,2.70
2023-05-10T07:25:35.175Z,2.95
2023-05-10T07:28:03.200Z,2.90
2023-05-10T07:30:31.758Z,3.80
2023-05-10T07:33:00.233Z,4.30
2023-05-10T07:35:29.668Z,3.72
2023-05-10T07:37:57.730Z,3.65
2023-05-10T07:40:25.761Z,4.10
2023-05-10T07:42:53.976Z,4.43
2023-05-10T07:45:22.129Z,4.85
2023-05-10T07:47:50.180Z,4.43
2023-05-10T07:50:18.602Z,5.00
2023-05-10T07:52:48.228Z,4.50
2023-05-10T07:55:16.870Z,5.43
2023-05-10T07:57:45.458Z,6.13
2023-05-10T08:00:15.570Z,6.65
2023-05-10T08:02:43.787Z,6.10
2023-05-10T08:05:11.950Z,6.80
2023-05-10T08:07:40.370Z,7.30
2023-05-10T08:10:12.089Z,7.47
2023-05-10T08:12:40.490Z,6.82
2023-05-10T08:15:10.090Z,7.38
2023-05-10T08:17:38.310Z,8.13
2023-05-10T08:20:08.355Z,7.57
2023-05-10T08:22:36.347Z,6.82
2023-05-10T08:25:04.493Z,8.57
2023-05-10T08:27:33.848Z,9.00
2023-05-10T08:30:01.952Z,8.07
2023-05-10T08:32:29.994Z,9.10
2023-05-10T08:34:58.116Z,10.00
2023-05-10T08:37:26.393Z,8.63
2023-05-10T08:39:54.366Z,8.88
2023-05-10T08:42:27.003Z,7.88
2023-05-10T08:44:58.464Z,7.70
2023-05-10T08:47:27.888Z,8.15
2023-05-10T08:49:57.444Z,9.32
2023-05-10T08:52:28.760Z,8.70
2023-05-10T08:54:56.948Z,8.27
2023-05-10T08:57:24.948Z,8.93
2023-05-10T08:59:53.038Z,8.13
2023-05-10T09:02:23.263Z,8.48
2023-05-10T09:04:51.382Z,7.30
2023-05-10T09:07:19.848Z,9.27
2023-05-10T09:09:48.719Z,8.95
2023-05-10T09:12:17.506Z,8.52
2023-05-10T09:14:47.725Z,9.38
2023-05-10T09:17:16.046Z,10.05
2023-05-10T09:19:47.271Z,9.88
2023-05-10T09:22:15.785Z,9.80
2023-05-10T09:24:46.342Z,12.23
2023-05-10T09:27:14.396Z,13.65
2023-05-10T09:29:42.551Z,12.02
2023-05-10T09:32:10.622Z,12.80
2023-05-10T09:34:41.290Z,12.38
2023-05-10T09:37:10.714Z,12.20
2023-05-10T09:39:40.059Z,14.10
2023-05-10T09:42:09.895Z,12.15
2023-05-10T09:44:39.109Z,12.15
2023-05-10T09:47:08.607Z,11.65
2023-05-10T09:49:36.752Z,11.65
2023-05-10T09:52:06.711Z,12.80
2023-05-10T09:54:37.166Z,11.68
2023-05-10T09:57:05.271Z,10.68
2023-05-10T09:59:36.349Z,10.65
2023-05-10T10:02:04.952Z,13.32
2023-05-10T10:04:33.845Z,11.15
2023-05-10T10:07:03.607Z,10.90
2023-05-10T10:09:32.003Z,10.90
2023-05-10T10:12:01.465Z,10.73
2023-05-10T10:14:29.813Z,8.57
2023-05-10T10:17:06.670Z,9.40
2023-05-10T10:19:37.921Z,9.05
2023-05-10T10:22:06.994Z,9.98
2023-05-10T10:24:35.399Z,7.80
2023-05-10T10:27:13.873Z,8.80
2023-05-10T10:29:50.477Z,7.40
2023-05-10T10:32:28.056Z,6.65
2023-05-10T10:34:57.692Z,7.38
2023-05-10T10:37:43.196Z,7.45
2023-05-10T10:40:27.489Z,6.90
2023-05-10T10:42:58.225Z,6.15
2023-05-10T10:45:27.370Z,6.78
2023-05-10T10:48:23.775Z,6.82
2023-05-10T10:50:59.109Z,6.35
2023-05-10T10:53:29.475Z,6.63
2023-05-10T10:56:08.991Z,5.65
2023-05-10T10:58:39.583Z,5.00
2023-05-10T11:01:16.537Z,4.75
2023-05-10T11:04:12.562Z,4.30
2023-05-10T11:06:41.339Z,4.40
2023-05-10T11:09:10.478Z,4.63
2023-05-10T11:11:50.414Z,4.85
2023-05-10T11:14:22.731Z,5.22
2023-05-10T11:16:51.044Z,5.30
2023-05-10T11:19:20.091Z,5.00
2023-05-10T11:21:50.195Z,4.80
2023-05-10T11:24:20.323Z,4.47
2023-05-10T11:26:51.772Z,4.65
2023-05-10T11:29:21.503Z,4.70
2023-05-10T11:31:50.420Z,5.13
2023-05-10T11:34:29.310Z,5.20
2023-05-10T11:36:58.910Z,5.40
2023-05-10T11:39:29.671Z,4.90
2023-05-10T11:41:58.850Z,5.30
2023-05-10T11:44:32.160Z,5.10
2023-05-10T11:47:01.247Z,4.88
2023-05-10T11:49:29.560Z,5.28
2023-05-10T11:52:06.574Z,6.10
2023-05-10T11:54:35.851Z,5.18
2023-05-10T11:57:04.049Z,5.90
2023-05-10T11:59:33.623Z,5.03
2023-05-10T12:02:02.146Z,5.03
2023-05-10T12:04:30.604Z,5.00
2023-05-10T12:06:59.049Z,4.72
2023-05-10T12:11:58.926Z,5.85
2023-05-10T12:14:27.324Z,5.45
2023-05-10T12:16:59.551Z,6.63
2023-05-10T12:19:27.609Z,7.30
2023-05-10T12:21:55.859Z,7.30
2023-05-10T12:24:25.807Z,6.40
2023-05-10T12:26:53.880Z,7.32
2023-05-10T12:29:21.960Z,7.78
2023-05-10T12:31:54.704Z,8.35
2023-05-10T12:34:28.554Z,8.40
2023-05-10T12:36:57.538Z,7.93
2023-05-10T12:39:25.986Z,9.30
2023-05-10T12:41:54.265Z,9.00
2023-05-10T12:44:22.364Z,9.18
2023-05-10T12:46:50.526Z,8.23
2023-05-10T12:49:20.028Z,8.80
2023-05-10T12:51:49.493Z,9.35
2023-05-10T12:54:17.508Z,8.65
2023-05-10T12:56:45.634Z,9.00
2023-05-10T12:59:13.667Z,10.68
2023-05-10T13:01:41.815Z,9.30
2023-05-10T13:04:09.926Z,9.30
2023-05-10T13:06:38.059Z,9.05
2023-05-10T13:09:08.005Z,8.48
2023-05-10T13:11:36.202Z,8.80
2023-05-10T13:14:04.418Z,8.77
2023-05-10T13:16:32.599Z,8.90
2023-05-10T13:19:01.005Z,8.98
2023-05-10T13:21:29.213Z,7.90
2023-05-10T13:23:57.551Z,8.70
2023-05-10T13:26:27.429Z,8.50
2023-05-10T13:28:56.622Z,9.38
2023-05-10T13:31:24.883Z,9.68
2023-05-10T13:33:53.189Z,9.35
2023-05-10T13:36:21.240Z,10.07
2023-05-10T13:38:49.296Z,11.35
2023-05-10T13:41:17.387Z,7.18
2023-05-10T13:43:46.912Z,5.93
2023-05-10T13:46:15.062Z,6.40
2023-05-10T13:48:43.111Z,6.60
2023-05-10T13:51:11.170Z,6.78
2023-05-10T13:53:39.288Z,8.60
2023-05-10T13:56:07.877Z,8.15
2023-05-10T13:58:36.963Z,6.68
2023-05-10T14:01:06.894Z,8.40
2023-05-10T14:03:35.073Z,7.03
2023-05-10T14:06:03.495Z,7.60
2023-05-10T14:08:31.572Z,7.82
2023-05-10T14:10:59.610Z,7.78
2023-05-10T14:13:27.701Z,7.65
2023-05-10T14:15:56.585Z,8.32
2023-05-10T14:18:26.867Z,7.82
2023-05-10T14:20:55.255Z,6.68
2023-05-10T14:23:25.805Z,7.68
2023-05-10T14:25:57.296Z,8.15
2023-05-10T14:28:26.117Z,7.85
2023-05-10T14:30:54.249Z,7.72
2023-05-10T14:33:22.881Z,8.02
2023-05-10T14:35:52.363Z,7.70
2023-05-10T14:38:20.363Z,7.25
2023-05-10T14:40:48.538Z,7.43
2023-05-10T14:43:16.660Z,7.95
2023-05-10T14:45:44.769Z,8.30
2023-05-10T14:48:16.221Z,8.48
2023-05-10T14:50:44.377Z,8.07
2023-05-10T14:53:13.816Z,7.90
2023-05-10T14:55:41.995Z,8.13
2023-05-10T14:58:10.187Z,8.55
2023-05-10T15:00:38.224Z,9.15
2023-05-10T15:03:06.975Z,9.88
2023-05-10T15:05:35.648Z,8.60
2023-05-10T15:08:04.121Z,9.10
2023-05-10T15:10:34.601Z,9.70
2023-05-10T15:13:03.134Z,9.32
2023-05-10T15:15:31.594Z,10.02
2023-05-10T15:17:59.744Z,10.45
2023-05-10T15:20:27.985Z,10.05
2023-05-10T15:22:56.188Z,9.90
2023-05-10T15:25:25.285Z,11.52
2023-05-10T15:27:54.804Z,10.93
2023-05-10T15:30:23.136Z,9.77
2023-05-10T15:32:51.311Z,10.98
2023-05-10T15:35:19.572Z,11.40
2023-05-10T15:37:49.735Z,11.27
2023-05-10T15:40:18.249Z,10.32
2023-05-10T15:42:46.273Z,10.45
2023-05-10T15:45:16.644Z,9.18
2023-05-10T15:47:45.752Z,10.95
2023-05-10T15:50:13.972Z,10.38
2023-05-10T15:52:42.388Z,10.23
2023-05-10T15:55:13.233Z,12.45
2023-05-10T15:57:42.566Z,10.70
2023-05-10T16:00:12.169Z,11.20
2023-05-10T16:02:41.985Z,10.55
2023-05-10T16:05:11.153Z,10.02
2023-05-10T16:07:40.233Z,10.43
2023-05-10T16:10:10.526Z,9.63
2023-05-10T16:12:39.095Z,7.93
2023-05-10T16:15:08.239Z,8.88
2023-05-10T16:17:37.467Z,9.93
2023-05-10T16:20:08.619Z,9.55
2023-05-10T16:22:36.993Z,9.50
2023-05-10T16:25:05.670Z,8.68
2023-05-10T16:27:33.792Z,9.23
2023-05-10T16:30:02.174Z,11.25
2023-05-10T16:32:30.376Z,9.63
2023-05-10T16:34:58.382Z,7.53
2023-05-10T16:37:27.996Z,7.95
2023-05-10T16:39:56.007Z,8.38
2023-05-10T16:42:24.154Z,8.50
2023-05-10T16:44:52.552Z,8.55
2023-05-10T16:47:20.652Z,8.32
2023-05-10T16:49:49.346Z,8.13
2023-05-10T16:52:17.417Z,9.25
2023-05-10T16:54:46.892Z,8.32
2023-05-10T16:57:14.939Z,7.57
2023-05-10T16:59:42.981Z,7.05
2023-05-10T17:02:11.254Z,7.65
2023-05-10T17:04:39.425Z,9.60
2023-05-10T17:07:07.603Z,8.88
2023-05-10T17:09:35.838Z,8.65
2023-05-10T17:12:05.729Z,9.02
2023-05-10T17:14:33.988Z,9.20
2023-05-10T17:17:02.298Z,8.73
2023-05-10T17:19:30.707Z,7.15
2023-05-10T17:21:58.803Z,7.97
2023-05-10T17:24:29.642Z,8.38
2023-05-10T17:26:57.900Z,8.07
2023-05-10T17:29:28.240Z,7.55
2023-05-10T17:31:56.401Z,8.00
2023-05-10T17:34:24.532Z,7.80
2023-05-10T17:36:52.565Z,6.57
2023-05-10T17:39:20.576Z,6.38
2023-05-10T17:41:48.673Z,5.90
2023-05-10T17:44:16.722Z,6.47
2023-05-10T17:46:46.181Z,7.72
2023-05-10T17:49:14.760Z,6.85
2023-05-10T17:51:44.210Z,5.90
2023-05-10T17:54:12.276Z,7.43
2023-05-10T17:56:40.441Z,5.57
2023-05-10T17:59:08.757Z,6.10
2023-05-10T18:01:36.823Z,6.38
2023-05-10T18:04:06.343Z,5.60
2023-05-10T18:06:37.458Z,6.00
2023-05-10T18:09:07.346Z,7.50
2023-05-10T18:11:36.472Z,6.68
2023-05-10T18:14:04.701Z,5.68
2023-05-10T18:16:32.947Z,6.20
2023-05-10T18:19:01.236Z,6.88
2023-05-10T18:21:31.384Z,6.35
2023-05-10T18:23:59.554Z,5.03
2023-05-10T18:26:27.843Z,5.05
2023-05-10T18:28:55.888Z,4.93
2023-05-10T18:31:24.034Z,5.88
2023-05-10T18:33:52.483Z,5.10
2023-05-10T18:36:21.419Z,6.45
2023-05-10T18:38:51.260Z,6.03
2023-05-10T18:41:19.669Z,6.13
2023-05-10T18:43:47.791Z,5.05
2023-05-10T18:46:16.124Z,5.50
2023-05-10T18:48:44.159Z,5.43
2023-05-10T18:51:13.122Z,5.45
2023-05-10T18:53:41.212Z,5.82
2023-05-10T18:56:10.717Z,6.30
2023-05-10T18:58:39.067Z,5.55
2023-05-10T19:01:08.013Z,5.10
2023-05-10T19:03:36.756Z,5.32
2023-05-10T19:06:04.978Z,5.43
2023-05-10T19:08:33.022Z,5.20
2023-05-10T19:11:01.093Z,5.65
2023-05-10T19:13:30.609Z,4.70
2023-05-10T19:16:06.272Z,5.22
2023-05-10T19:18:34.757Z,6.20
2023-05-10T19:21:04.708Z,5.95
2023-05-10T19:23:33.745Z,5.00
2023-05-10T19:26:02.614Z,5.28
2023-05-10T19:28:32.210Z,5.25
2023-05-10T19:31:00.404Z,5.43
2023-05-10T19:33:28.733Z,5.65
2023-05-10T19:35:57.158Z,4.60
2023-05-10T19:38:26.210Z,4.97
2023-05-10T19:40:58.135Z,5.53
2023-05-10T19:43:26.500Z,5.80
2023-05-10T19:45:56.361Z,5.82
2023-05-10T19:48:24.380Z,5.75
2023-05-10T19:50:52.574Z,5.93
2023-05-10T19:53:20.642Z,5.45
2023-05-10T19:55:48.986Z,5.78
2023-05-10T19:58:17.873Z,5.60
2023-05-10T20:00:46.161Z,5.05
2023-05-10T20:03:15.701Z,5.30
2023-05-10T20:05:44.296Z,6.57
2023-05-10T20:08:12.416Z,5.38
2023-05-10T20:10:40.709Z,5.18
2023-05-10T20:13:08.928Z,6.28
2023-05-10T20:15:37.190Z,5.75
2023-05-10T20:18:05.593Z,6.70
2023-05-10T20:20:35.164Z,6.30
2023-05-10T20:23:03.334Z,7.05
2023-05-10T20:25:31.481Z,6.90
2023-05-10T20:27:59.475Z,6.05
2023-05-10T20:30:27.621Z,6.55
2023-05-10T20:32:55.687Z,8.13
2023-05-10T20:35:23.953Z,8.38
2023-05-10T20:37:53.460Z,9.00
2023-05-10T20:40:21.659Z,9.15
2023-05-10T20:42:52.048Z,8.43
2023-05-10T20:45:20.119Z,8.90
2023-05-10T20:47:48.172Z,7.75
2023-05-10T20:50:16.351Z,7.80
2023-05-10T20:52:44.504Z,8.95
2023-05-10T20:55:14.034Z,10.55
2023-05-10T20:57:42.033Z,9.77
2023-05-10T21:00:11.435Z,9.95
2023-05-10T21:02:39.512Z,10.07
2023-05-10T21:05:08.619Z,9.63
2023-05-10T21:07:36.811Z,9.25
2023-05-10T21:10:05.312Z,8.88
2023-05-10T21:12:34.766Z,11.05
2023-05-10T21:15:02.938Z,9.88
2023-05-10T21:17:31.035Z,11.95
2023-05-10T21:19:59.082Z,11.93
2023-05-10T21:22:27.486Z,10.90
2023-05-10T21:24:55.511Z,11.07
2023-05-10T21:27:23.538Z,11.07
2023-05-10T21:29:53.180Z,11.85
2023-05-10T21:32:21.438Z,10.40
2023-05-10T21:34:49.559Z,11.68
2023-05-10T21:37:17.762Z,13.13
2023-05-10T21:39:46.005Z,11.48
2023-05-10T21:42:13.988Z,11.52
2023-05-10T21:44:42.074Z,13.82
2023-05-10T21:47:11.596Z,9.65
2023-05-10T21:49:39.668Z,9.10
2023-05-10T21:52:07.958Z,8.32
2023-05-10T21:54:37.291Z,9.20
2023-05-10T21:57:05.418Z,8.88
2023-05-10T21:59:33.480Z,8.82
2023-05-10T22:02:01.531Z,9.75
2023-05-10T22:04:31.014Z,9.13
2023-05-10T22:06:59.011Z,9.23
2023-05-10T22:09:27.051Z,8.43
2023-05-10T22:11:55.069Z,9.98
2023-05-10T22:14:23.929Z,10.55
2023-05-10T22:16:52.330Z,10.27
2023-05-10T22:19:20.426Z,10.35
2023-05-10T22:21:49.922Z,9.50
2023-05-10T22:24:18.572Z,8.73
2023-05-10T22:26:46.616Z,11.60
2023-05-10T22:29:14.720Z,10.32
2023-05-10T22:31:42.842Z,9.55
2023-05-10T22:34:10.971Z,10.48
2023-05-10T22:36:39.155Z,10.30
2023-05-10T22:39:08.595Z,10.32
2023-05-10T22:41:36.681Z,10.75
2023-05-10T22:44:05.391Z,11.45
2023-05-10T22:46:34.764Z,12.55
2023-05-10T22:49:03.278Z,11.13
2023-05-10T22:51:31.263Z,12.40
2023-05-10T22:53:59.330Z,12.88
2023-05-10T22:56:28.911Z,14.10
2023-05-10T22:58:58.328Z,13.90
2023-05-10T23:01:26.530Z,12.50
2023-05-10T23:03:54.638Z,13.95
2023-05-10T23:06:22.687Z,13.00
2023-05-10T23:08:50.786Z,12.07
2023-05-10T23:11:18.834Z,14.95
2023-05-10T23:13:48.246Z,17.10
2023-05-10T23:16:16.306Z,15.00
2023-05-10T23:18:44.492Z,13.57
2023-05-10T23:21:12.556Z,18.35
2023-05-10T23:23:40.749Z,17.02
2023-05-10T23:26:09.461Z,18.75
2023-05-10T23:28:37.448Z,17.95
2023-05-10T23:31:07.030Z,14.98
2023-05-10T23:33:35.061Z,17.60
2023-05-10T23:36:03.077Z,18.45
2023-05-10T23:38:31.148Z,18.33
2023-05-10T23:40:59.169Z,15.77
2023-05-10T23:43:27.315Z,18.15
2023-05-10T23:45:55.904Z,18.73
2023-05-10T23:48:25.644Z,18.85
2023-05-10T23:50:53.998Z,18.25
2023-05-10T23:53:22.015Z,18.65
2023-05-10T23:55:50.022Z,14.85
2023-05-10T23:58:18.074Z,18.05
